Sunday, January 21, 2018, 3:36 PM EST
Back to Local

K40B, Clayton Lake

Location: Ashland, ME, United States Lat: 46.617
Local Time: 3:36 PM EST (20:36 GMT) Lon: -69.533
Time Zone: US/Eastern Elev: 1030 ft

Show me the last for .
Show Decoded

2018-01-21 15:16 METAR K40B 212016Z AUTO VRB04G11KT M06/M15 A3003 RMK AO1 SLP203 T10601154 53012
                 =
2018-01-21 14:16 METAR K40B 211916Z AUTO VRB04G13KT M06/M15 A3000 RMK AO1 SLP195 T10601154 52003
                 =
2018-01-21 13:16 METAR K40B 211816Z AUTO VRB05G14KT M05/M16 A2999 RMK AO1 SLP193 T10551161 11053
                 21159 55006 60001 =
2018-01-21 12:16 METAR K40B 211716Z AUTO VRB04G13KT M06/M16 A2999 RMK AO1 SLP192 T10601159 57005
                 =
2018-01-21 11:16 METAR K40B 211616Z AUTO VRB06G15KT M06/M17 A2999 RMK AO1 SLP194 T10651169 50003
                 =
2018-01-21 10:16 METAR K40B 211516Z AUTO VRB05G11KT M08/M15 A3001 RMK AO1 SLP199 T10791154 52014
                 60001 =
2018-01-21 09:16 METAR K40B 211416Z AUTO VRB05KT M11/M14 A3000 RMK AO1 SLP196 T11081144 51023
                 P0001 =
2018-01-21 08:16 METAR K40B 211316Z AUTO 00000KT M14/M16 A2998 RMK AO1 SLP188 T11391159 52021
                 P0000 =
2018-01-21 07:16 METAR K40B 211216Z AUTO 00000KT M15/M17 A2997 RMK AO1 SLP180 T11541170 11079
                 21153 52025 =
2018-01-21 06:16 METAR K40B 211116Z AUTO 00000KT M14/M15 A2993 RMK AO1 SLP167 T11411155 51023 =
2018-01-21 05:16 METAR K40B 211016Z AUTO 00000KT M14/M15 A2992 RMK AO1 SLP160 T11411155 52026 =
2018-01-21 04:16 METAR K40B 210916Z AUTO 00000KT M12/M14 A2989 RMK AO1 SLP148 T11221136 51031 =
2018-01-21 03:16 METAR K40B 210816Z AUTO 00000KT M11/M13 A2986 RMK AO1 SLP138 T11101126 51034 =
2018-01-21 02:16 METAR K40B 210716Z AUTO 00000KT M09/M12 A2984 RMK AO1 SLP127 T10921120 53029 =
2018-01-21 01:16 METAR K40B 210616Z AUTO VRB03KT M08/M11 A2980 RMK AO1 SLP112 T10801111 11003
                 21079 53021 =
2018-01-21 00:16 METAR K40B 210516Z AUTO VRB04KT M07/M10 A2976 RMK AO1 SLP098 T10691104 400181068
                 51024 =
2018-01-20 23:16 METAR K40B 210416Z AUTO VRB04G13KT M05/M10 A2975 RMK AO1 SLP094 T10541095 51032
                 =
2018-01-20 22:16 METAR K40B 210316Z AUTO VRB02KT M05/M09 A2973 RMK AO1 SLP087 T10461094 51047 =
2018-01-20 21:16 METAR K40B 210216Z AUTO VRB05G20KT M03/M09 A2968 RMK AO1 SLP070 T10301087 51053
                 =
2018-01-20 20:16 METAR K40B 210116Z AUTO VRB06G20KT M02/M08 A2965 RMK AO1 PRESFR SLP058 T10181082
                 53055 =
2018-01-20 19:16 METAR K40B 210016Z AUTO 26008G20KT 190V350 00/M06 A2959 RMK AO1 PK WND
                 22029/2341 SLP037 T10031060 10018 21003 53048 =
2018-01-20 18:16 METAR K40B 202316Z AUTO VRB05G18KT 01/M03 A2952 RMK AO1 SLP015 T00131033 53036 =
2018-01-20 17:16 METAR K40B 202216Z AUTO VRB05G14KT 01/M02 A2948 RMK AO1 PK WND 27028/2144 SLP000
                 T00141022 51035 =
2018-01-20 16:16 METAR K40B 202116Z AUTO 24007G17KT 130V350 01/M02 A2944 RMK AO1 SLP988 T00141022
                 51028 =

Support USWX by starting your Amazon purchase here.